Kivalina Airport Kivalina US
ICAO: PAVL
IATA:
Category: Medium
Scheduled Services:

Elevation: 13 ft
TransAlt. 18000 ft.

Airport Communications:
ANCHORAGE CNTR:119.2
ASOS:135.8
CTAF/UNICOM:122.8
KOTZEBUE RDO:122.55

PAVL Zoom In..

If Map Doesn't Load, Click Here

Runways:

(A) RW 12 length 3000 ft width 60 ft
---- / hdg 122

(B) RW 30 length 3000 ft width 60 ft
---- / hdg 302

Location; PAVL
Day. 23 / Time. 21.53 Zulu
* Altimeter: 29.67
* Temperature: 08° c. 46.4°f.
* Wind from: 070° Speed 05 kn.
Dewpoint: 00° c.
Visibility: 9 Statute Miles.
Clouds: Clear (automated report).

PAVL 232153Z AUTO 07005KT 9SM CLR 08/00 A2967 RMK AO2 SLP048 T00830000 TSNO


Wind From 070°
Speed 05 kn.

 
 
jpsmedia.com for Web Design worldairports.se 2018   terms of use